Time;durP1;ratioP1;P1;durP2;ratioP2;P2;SDS_P1;SDS_P2;PMS_P1;PMS_P2;Temp;Humidity;BMP_temperature;BMP_pressure;BME280_temperature;BME280_humidity;BME280_pressure;Samples;Min_cycle;Max_cycle;Signal;HPM_P1;HPM_P2
2022/09/27 00:00:48;;;;;;;0.30;0.10;;;;;16.90;99484.00;;;;5007741;28;20221;-81
2022/09/27 00:03:15;;;;;;;1.05;0.10;;;;;16.80;99486.00;;;;5007589;28;20204;-81
2022/09/27 00:05:42;;;;;;;0.90;0.30;;;;;16.80;99492.00;;;;5008880;28;20219;-81
2022/09/27 00:08:11;;;;;;;2.58;0.30;;;;;16.80;99493.00;;;;5011368;28;20304;-82
2022/09/27 00:10:38;;;;;;;0.65;0.30;;;;;16.80;99503.00;;;;5008144;28;20204;-81
2022/09/27 00:13:05;;;;;;;1.88;0.20;;;;;16.80;99499.00;;;;5007332;28;20203;-81
2022/09/27 00:15:34;;;;;;;1.75;0.20;;;;;16.80;99506.00;;;;5019277;28;20193;-81
2022/09/27 00:18:01;;;;;;;0.45;0.20;;;;;16.80;99521.00;;;;5008868;28;20201;-81
2022/09/27 00:20:29;;;;;;;1.70;0.55;;;;;16.80;99518.00;;;;5009552;28;20216;-81
2022/09/27 00:22:56;;;;;;;2.65;0.20;;;;;16.80;99525.00;;;;5006705;28;20208;-81
2022/09/27 00:25:23;;;;;;;0.50;0.20;;;;;16.80;99518.00;;;;5011914;28;20202;-81
2022/09/27 00:27:50;;;;;;;1.17;0.20;;;;;16.80;99519.00;;;;5012519;28;20201;-81
2022/09/27 00:30:18;;;;;;;1.67;0.40;;;;;16.70;99516.00;;;;5008375;28;20196;-81
2022/09/27 00:32:46;;;;;;;0.55;0.20;;;;;16.70;99508.00;;;;5008889;28;20573;-82
2022/09/27 00:35:15;;;;;;;0.80;0.20;;;;;16.70;99497.00;;;;5011613;28;20585;-81
2022/09/27 00:37:42;;;;;;;0.30;0.10;;;;;16.70;99500.00;;;;5014264;28;20553;-81
2022/09/27 00:40:10;;;;;;;1.95;0.30;;;;;16.70;99504.00;;;;5007394;28;20687;-81
2022/09/27 00:42:37;;;;;;;1.30;0.20;;;;;16.70;99506.00;;;;5017907;28;20225;-81
2022/09/27 00:45:13;;;;;;;0.50;0.22;;;;;16.60;99499.00;;;;5011561;28;20801;-81
2022/09/27 00:47:49;;;;;;;3.17;0.10;;;;;16.70;99501.00;;;;5011509;28;20255;-82
2022/09/27 00:50:26;;;;;;;0.15;0.10;;;;;16.60;99499.00;;;;5010997;28;20195;-82
2022/09/27 00:53:05;;;;;;;1.08;0.30;;;;;16.60;99497.00;;;;5012091;28;20199;-81
2022/09/27 00:55:38;;;;;;;0.63;0.13;;;;;16.60;99506.00;;;;5012987;28;20200;-82
2022/09/27 00:58:07;;;;;;;0.47;0.13;;;;;16.60;99504.00;;;;5014567;28;20543;-81
2022/09/27 01:00:36;;;;;;;0.50;0.10;;;;;16.60;99501.00;;;;5008880;28;20628;-82
2022/09/27 01:03:08;;;;;;;2.00;0.32;;;;;16.60;99502.00;;;;5010080;28;20201;-82
2022/09/27 01:05:35;;;;;;;2.05;0.08;;;;;16.60;99514.00;;;;5008606;28;20215;-82
2022/09/27 01:08:02;;;;;;;0.30;0.25;;;;;16.60;99513.00;;;;5011200;28;22218;-82
2022/09/27 01:10:37;;;;;;;1.02;0.38;;;;;16.50;99514.00;;;;5013662;28;20359;-82
2022/09/27 01:13:12;;;;;;;1.13;0.10;;;;;16.50;99513.00;;;;5009698;28;20582;-81
2022/09/27 01:15:48;;;;;;;0.82;0.20;;;;;16.50;99512.00;;;;5012570;28;20200;-82
2022/09/27 01:18:29;;;;;;;2.10;0.20;;;;;16.40;99514.00;;;;5004377;28;20262;-81
2022/09/27 01:21:28;;;;;;;0.22;0.10;;;;;16.30;99522.00;;;;5011781;28;20582;-82
2022/09/27 01:24:19;;;;;;;0.43;0.10;;;;;16.40;99519.00;;;;5016088;28;20200;-82
2022/09/27 01:27:16;;;;;;;2.05;0.20;;;;;16.30;99531.00;;;;5004277;28;20205;-82
2022/09/27 01:30:00;;;;;;;1.70;0.28;;;;;16.30;99535.00;;;;5011455;28;20200;-82
2022/09/27 01:32:36;;;;;;;0.70;0.20;;;;;16.30;99543.00;;;;5012809;28;20205;-82
2022/09/27 01:35:07;;;;;;;0.30;0.28;;;;;16.40;99531.00;;;;5014804;28;20196;-82
2022/09/27 01:37:43;;;;;;;1.10;0.20;;;;;16.30;99531.00;;;;5024551;28;20200;-83
2022/09/27 01:40:17;;;;;;;1.48;0.30;;;;;16.40;99526.00;;;;5022609;28;20188;-83
2022/09/27 01:42:50;;;;;;;1.95;0.20;;;;;16.30;99532.00;;;;5009469;28;20221;-83
2022/09/27 01:45:23;;;;;;;1.77;0.20;;;;;16.30;99536.00;;;;5002367;28;20220;-83
2022/09/27 01:47:54;;;;;;;0.82;0.30;;;;;16.30;99534.00;;;;5008301;28;20681;-83
2022/09/27 01:50:26;;;;;;;3.63;0.25;;;;;16.30;99532.00;;;;5007456;28;20204;-80
2022/09/27 01:52:58;;;;;;;0.98;0.10;;;;;16.30;99530.00;;;;5012413;28;20586;-81
2022/09/27 01:55:32;;;;;;;1.45;0.20;;;;;16.30;99541.00;;;;5024529;28;20267;-80
2022/09/27 01:58:04;;;;;;;1.55;0.40;;;;;16.30;99548.00;;;;5004635;28;20663;-80
2022/09/27 02:00:33;;;;;;;0.75;0.50;;;;;16.30;99539.00;;;;5007801;28;20200;-80
2022/09/27 02:03:06;;;;;;;1.63;0.40;;;;;16.30;99529.00;;;;5015033;28;20239;-79
2022/09/27 02:05:40;;;;;;;0.47;0.10;;;;;16.30;99521.00;;;;5014682;28;20196;-81
2022/09/27 02:08:15;;;;;;;1.40;0.28;;;;;16.30;99524.00;;;;5014415;28;20207;-81
2022/09/27 02:10:45;;;;;;;0.63;0.10;;;;;16.30;99520.00;;;;5017168;28;20563;-82
2022/09/27 02:13:18;;;;;;;0.98;0.38;;;;;16.20;99523.00;;;;5012299;28;20189;-81
2022/09/27 02:15:55;;;;;;;0.65;0.20;;;;;16.20;99521.00;;;;4994208;28;20205;-82
2022/09/27 02:18:32;;;;;;;0.68;0.20;;;;;16.20;99514.00;;;;5000292;28;20201;-81
2022/09/27 02:21:01;;;;;;;1.25;0.40;;;;;16.20;99517.00;;;;5010023;28;20200;-81
2022/09/27 02:23:35;;;;;;;1.10;0.20;;;;;16.20;99520.00;;;;5022357;28;20212;-81
2022/09/27 02:26:10;;;;;;;0.25;0.05;;;;;16.20;99528.00;;;;4992454;28;20197;-81
2022/09/27 02:28:42;;;;;;;0.17;0.10;;;;;16.20;99524.00;;;;5017139;28;20193;-81
2022/09/27 02:31:09;;;;;;;1.63;0.40;;;;;16.20;99520.00;;;;5019344;28;20204;-81
2022/09/27 02:33:43;;;;;;;3.28;0.20;;;;;16.10;99521.00;;;;5002108;28;20671;-81
2022/09/27 02:36:10;;;;;;;0.70;0.20;;;;;16.20;99520.00;;;;5021414;28;20203;-81
2022/09/27 02:38:38;;;;;;;2.40;0.28;;;;;16.20;99513.00;;;;5006523;28;20611;-81
2022/09/27 02:41:13;;;;;;;2.47;0.30;;;;;16.10;99515.00;;;;5000825;28;20197;-81
2022/09/27 02:43:43;;;;;;;1.60;0.28;;;;;16.10;99522.00;;;;5011651;28;20200;-81
2022/09/27 02:46:30;;;;;;;0.77;0.13;;;;;16.00;99523.00;;;;5010932;28;20197;-81
2022/09/27 02:49:09;;;;;;;1.60;0.43;;;;;16.00;99515.00;;;;5010580;28;20287;-81
2022/09/27 02:51:47;;;;;;;1.35;0.10;;;;;16.00;99517.00;;;;5003264;28;20196;-81
2022/09/27 02:54:23;;;;;;;1.13;0.25;;;;;16.00;99517.00;;;;5012413;28;20205;-81
2022/09/27 02:57:01;;;;;;;0.80;0.20;;;;;16.00;99515.00;;;;4991300;28;20725;-82
2022/09/27 02:59:35;;;;;;;3.80;0.98;;;;;16.00;99513.00;;;;5014442;28;20713;-81
2022/09/27 03:02:12;;;;;;;0.50;0.08;;;;;15.90;99516.00;;;;5012340;28;20716;-81
2022/09/27 03:04:47;;;;;;;2.05;0.40;;;;;15.90;99511.00;;;;5015513;28;20223;-81
2022/09/27 03:07:14;;;;;;;2.60;0.57;;;;;15.90;99519.00;;;;5014423;28;20588;-81
2022/09/27 03:09:44;;;;;;;3.55;1.02;;;;;15.90;99511.00;;;;5016515;28;20340;-81
2022/09/27 03:12:12;;;;;;;2.28;0.20;;;;;15.90;99514.00;;;;5009549;28;20201;-81
2022/09/27 03:14:39;;;;;;;1.15;0.30;;;;;15.90;99514.00;;;;5008863;28;20193;-82
2022/09/27 03:17:06;;;;;;;1.20;0.25;;;;;15.90;99517.00;;;;5010912;28;20197;-81
2022/09/27 03:19:34;;;;;;;3.13;0.40;;;;;15.90;99524.00;;;;5010115;28;20208;-82
2022/09/27 03:22:02;;;;;;;0.93;0.17;;;;;15.90;99522.00;;;;5011330;28;20228;-82
2022/09/27 03:24:30;;;;;;;1.35;0.30;;;;;15.90;99520.00;;;;5013155;28;20196;-82
2022/09/27 03:26:57;;;;;;;2.42;0.22;;;;;15.90;99518.00;;;;5016068;28;20216;-82
2022/09/27 03:29:24;;;;;;;1.55;0.40;;;;;15.90;99519.00;;;;5013103;28;20203;-82
2022/09/27 03:31:51;;;;;;;1.13;0.20;;;;;15.80;99524.00;;;;5003052;28;20582;-82
2022/09/27 03:34:19;;;;;;;1.13;0.25;;;;;15.80;99526.00;;;;5008821;28;20204;-82
2022/09/27 03:36:46;;;;;;;2.90;0.30;;;;;15.80;99513.00;;;;5015931;28;20670;-82
2022/09/27 03:39:15;;;;;;;3.45;0.38;;;;;15.80;99512.00;;;;5010665;28;20658;-81
2022/09/27 03:41:42;;;;;;;1.55;0.40;;;;;15.80;99509.00;;;;5010301;28;20706;-82
2022/09/27 03:44:09;;;;;;;3.08;0.40;;;;;15.80;99513.00;;;;5013364;28;20208;-81
2022/09/27 03:46:36;;;;;;;2.50;0.30;;;;;15.80;99512.00;;;;5014059;28;20197;-82
2022/09/27 03:49:04;;;;;;;1.95;0.35;;;;;15.80;99515.00;;;;5009472;28;20205;-82
2022/09/27 03:51:31;;;;;;;1.40;0.40;;;;;15.80;99512.00;;;;5012698;28;20193;-82
2022/09/27 03:53:58;;;;;;;2.97;0.40;;;;;15.80;99513.00;;;;5013099;28;20204;-82
2022/09/27 03:56:27;;;;;;;2.53;0.57;;;;;15.80;99517.00;;;;5011459;28;20204;-82
2022/09/27 03:58:54;;;;;;;3.20;0.60;;;;;15.80;99509.00;;;;5011703;28;20228;-82
2022/09/27 04:01:22;;;;;;;2.35;0.30;;;;;15.80;99517.00;;;;5011140;28;20196;-82
2022/09/27 04:03:49;;;;;;;1.13;0.40;;;;;15.80;99522.00;;;;5014791;28;20205;-82
2022/09/27 04:06:16;;;;;;;2.40;0.45;;;;;15.80;99519.00;;;;5012609;28;20243;-81
2022/09/27 04:08:43;;;;;;;0.80;0.30;;;;;15.80;99524.00;;;;5011836;28;20776;-82
2022/09/27 04:11:11;;;;;;;3.22;0.60;;;;;15.80;99521.00;;;;5007498;28;20209;-81
2022/09/27 04:13:40;;;;;;;3.28;0.50;;;;;15.80;99519.00;;;;5012782;28;20204;-82
2022/09/27 04:16:07;;;;;;;0.45;0.17;;;;;15.80;99518.00;;;;5006739;28;20208;-81
2022/09/27 04:18:34;;;;;;;1.45;0.40;;;;;15.80;99516.00;;;;5012406;28;20227;-81
2022/09/27 04:21:02;;;;;;;1.05;0.28;;;;;15.80;99525.00;;;;5008458;28;20220;-81
2022/09/27 04:23:29;;;;;;;4.03;0.25;;;;;15.80;99524.00;;;;5012713;28;20219;-82
2022/09/27 04:25:57;;;;;;;2.92;0.30;;;;;15.80;99527.00;;;;5009724;28;20196;-82
2022/09/27 04:28:24;;;;;;;0.90;0.40;;;;;15.80;99528.00;;;;5012512;28;20200;-82
2022/09/27 04:30:53;;;;;;;2.15;0.22;;;;;15.70;99544.00;;;;5012134;28;20207;-82
2022/09/27 04:33:20;;;;;;;0.50;0.22;;;;;15.80;99542.00;;;;5012743;28;20207;-82
2022/09/27 04:38:32;;;;;;;2.45;0.43;;;;;15.70;99541.00;;;;5011095;28;20200;-82
2022/09/27 04:41:00;;;;;;;4.05;0.40;;;;;15.70;99541.00;;;;5013886;28;20348;-82
2022/09/27 04:43:28;;;;;;;2.95;0.35;;;;;15.70;99552.00;;;;5013671;28;20233;-82
2022/09/27 04:45:56;;;;;;;2.47;0.30;;;;;15.70;99554.00;;;;5011586;28;20729;-82
2022/09/27 04:48:25;;;;;;;1.02;0.20;;;;;15.60;99554.00;;;;5007575;28;20688;-82
2022/09/27 04:50:57;;;;;;;1.15;0.43;;;;;15.60;99554.00;;;;5011545;28;20221;-83
2022/09/27 04:53:24;;;;;;;2.75;0.28;;;;;15.60;99564.00;;;;5012603;28;20591;-82
2022/09/27 04:55:53;;;;;;;1.88;0.30;;;;;15.60;99551.00;;;;5011626;28;20626;-82
2022/09/27 04:58:21;;;;;;;2.13;0.20;;;;;15.60;99551.00;;;;5005033;28;20290;-82
2022/09/27 05:00:51;;;;;;;2.38;0.20;;;;;15.60;99544.00;;;;5005185;28;20252;-82
2022/09/27 05:03:20;;;;;;;1.63;0.20;;;;;15.50;99547.00;;;;5007251;28;20226;-83
2022/09/27 05:05:47;;;;;;;0.88;0.20;;;;;15.50;99539.00;;;;5001126;28;20228;-82
2022/09/27 05:08:14;;;;;;;2.80;0.77;;;;;15.50;99540.00;;;;4999317;28;20201;-82
2022/09/27 05:10:42;;;;;;;1.65;0.20;;;;;15.50;99536.00;;;;5008883;28;20553;-83
2022/09/27 05:13:09;;;;;;;3.10;0.98;;;;;15.50;99541.00;;;;5005134;28;20671;-82
2022/09/27 05:15:36;;;;;;;1.95;0.25;;;;;15.50;99537.00;;;;5009208;28;20208;-83
2022/09/27 05:18:03;;;;;;;0.98;0.20;;;;;15.50;99534.00;;;;5008731;28;20196;-82
2022/09/27 05:20:32;;;;;;;2.55;0.38;;;;;15.50;99531.00;;;;5007754;28;20572;-82
2022/09/27 05:22:59;;;;;;;2.28;0.40;;;;;15.50;99528.00;;;;5006681;28;20221;-82
2022/09/27 05:25:27;;;;;;;1.85;0.32;;;;;15.50;99529.00;;;;5001466;28;20193;-83
2022/09/27 05:27:54;;;;;;;3.08;0.40;;;;;15.50;99535.00;;;;4997623;28;20232;-82
2022/09/27 05:30:21;;;;;;;2.00;0.40;;;;;15.50;99535.00;;;;4999483;28;20208;-81
2022/09/27 05:32:49;;;;;;;1.95;0.40;;;;;15.50;99541.00;;;;5006806;28;20196;-82
2022/09/27 05:35:17;;;;;;;3.85;0.43;;;;;15.50;99543.00;;;;5006117;28;20208;-82
2022/09/27 05:37:52;;;;;;;1.67;0.47;;;;;15.40;99546.00;;;;5004490;28;20201;-83
2022/09/27 05:40:22;;;;;;;1.83;0.68;;;;;15.50;99551.00;;;;5007808;28;20270;-84
2022/09/27 05:42:50;;;;;;;1.35;0.17;;;;;15.50;99548.00;;;;5003567;28;20224;-84
2022/09/27 05:45:17;;;;;;;1.95;0.40;;;;;15.50;99544.00;;;;4999482;28;20274;-82
2022/09/27 05:47:51;;;;;;;0.45;0.30;;;;;15.50;99548.00;;;;5004547;28;20204;-83
2022/09/27 05:50:19;;;;;;;2.55;0.40;;;;;15.50;99553.00;;;;5004015;28;20204;-80
2022/09/27 05:52:47;;;;;;;1.27;0.28;;;;;15.50;99553.00;;;;5006847;28;20197;-79
2022/09/27 05:55:15;;;;;;;2.42;0.30;;;;;15.50;99565.00;;;;5002413;28;20530;-78
2022/09/27 05:57:42;;;;;;;1.00;0.30;;;;;15.50;99560.00;;;;5003628;28;20205;-79
2022/09/27 06:00:10;;;;;;;0.70;0.30;;;;;15.50;99564.00;;;;5011869;28;20294;-79
2022/09/27 06:02:38;;;;;;;0.60;0.13;;;;;15.60;99564.00;;;;5013870;28;20232;-78
2022/09/27 06:05:06;;;;;;;0.80;0.20;;;;;15.60;99557.00;;;;5008153;28;20291;-79
2022/09/27 06:07:33;;;;;;;1.55;0.40;;;;;15.60;99566.00;;;;5008090;28;20705;-79
2022/09/27 06:10:02;;;;;;;3.15;0.20;;;;;15.60;99555.00;;;;5007521;28;20572;-81
2022/09/27 06:12:30;;;;;;;1.50;0.73;;;;;15.60;99553.00;;;;5008208;28;20671;-79
2022/09/27 06:14:57;;;;;;;2.45;0.55;;;;;15.60;99553.00;;;;4992655;28;20210;-80
2022/09/27 06:17:24;;;;;;;1.05;0.30;;;;;15.60;99557.00;;;;4988690;28;20202;-79
2022/09/27 06:19:52;;;;;;;0.95;0.10;;;;;15.60;99553.00;;;;4995158;28;20659;-79
2022/09/27 06:22:19;;;;;;;0.95;0.20;;;;;15.70;99570.00;;;;5007554;28;20197;-79
2022/09/27 06:24:46;;;;;;;1.23;0.17;;;;;15.70;99576.00;;;;5008452;28;20643;-79
2022/09/27 06:27:16;;;;;;;1.10;0.38;;;;;15.70;99580.00;;;;5007665;28;20204;-79
2022/09/27 06:29:43;;;;;;;1.17;0.20;;;;;15.70;99582.00;;;;5008341;28;20247;-79
2022/09/27 06:32:11;;;;;;;1.65;0.15;;;;;15.80;99579.00;;;;5006708;28;20211;-79
2022/09/27 06:34:39;;;;;;;0.80;0.28;;;;;15.80;99579.00;;;;5007858;28;20670;-79
2022/09/27 06:37:06;;;;;;;0.98;0.10;;;;;15.80;99583.00;;;;5008162;28;20287;-79
2022/09/27 06:39:34;;;;;;;0.52;0.28;;;;;15.80;99584.00;;;;5008238;28;20204;-79
2022/09/27 06:42:01;;;;;;;1.15;0.47;;;;;15.80;99576.00;;;;5007754;28;20201;-80
2022/09/27 06:44:30;;;;;;;2.67;0.40;;;;;15.80;99576.00;;;;5008219;28;20221;-80
2022/09/27 06:46:57;;;;;;;1.23;0.30;;;;;15.80;99569.00;;;;5008634;28;20212;-79
2022/09/27 06:49:25;;;;;;;1.85;0.22;;;;;15.90;99573.00;;;;5009349;28;20204;-79
2022/09/27 06:51:53;;;;;;;0.82;0.20;;;;;15.90;99575.00;;;;5011659;28;20205;-79
2022/09/27 06:54:20;;;;;;;1.30;0.30;;;;;15.90;99579.00;;;;5011529;28;20204;-80
2022/09/27 06:56:48;;;;;;;1.95;0.43;;;;;15.90;99583.00;;;;5010607;28;20204;-79
2022/09/27 07:02:03;;;;;;;1.83;0.40;;;;;16.00;99585.00;;;;5011066;28;20575;-79
2022/09/27 07:04:30;;;;;;;0.70;0.25;;;;;16.00;99593.00;;;;5010810;28;20287;-80
2022/09/27 07:06:58;;;;;;;3.30;0.28;;;;;16.10;99598.00;;;;5010460;28;20225;-79
2022/09/27 07:09:25;;;;;;;1.65;0.40;;;;;16.10;99599.00;;;;5011372;28;20209;-79
2022/09/27 07:11:53;;;;;;;1.27;0.35;;;;;16.10;99595.00;;;;5011494;28;20225;-79
2022/09/27 07:14:20;;;;;;;1.25;0.32;;;;;16.20;99601.00;;;;5011627;28;20260;-79
2022/09/27 07:16:48;;;;;;;1.23;0.20;;;;;16.20;99601.00;;;;5011065;28;20201;-79
2022/09/27 07:19:17;;;;;;;1.80;0.32;;;;;16.20;99605.00;;;;5010753;28;21020;-79
2022/09/27 07:21:45;;;;;;;0.65;0.10;;;;;16.20;99602.00;;;;5010856;28;20247;-79
2022/09/27 07:24:12;;;;;;;1.63;0.20;;;;;16.30;99610.00;;;;5011205;28;20275;-79
2022/09/27 07:26:39;;;;;;;1.55;0.20;;;;;16.30;99611.00;;;;5011177;28;20215;-79
2022/09/27 07:29:06;;;;;;;0.65;0.20;;;;;16.40;99617.00;;;;5010503;28;20200;-80
2022/09/27 07:31:34;;;;;;;0.88;0.20;;;;;16.40;99621.00;;;;5010244;28;20197;-80
2022/09/27 07:34:02;;;;;;;1.98;0.40;;;;;16.50;99618.00;;;;5007900;28;20683;-79
2022/09/27 07:36:30;;;;;;;0.85;0.40;;;;;16.50;99625.00;;;;5010711;28;20200;-79
2022/09/27 07:38:59;;;;;;;0.68;0.10;;;;;16.50;99622.00;;;;5004588;28;20817;-79
2022/09/27 07:41:26;;;;;;;0.80;0.47;;;;;16.50;99623.00;;;;5009168;28;20697;-79
2022/09/27 07:43:54;;;;;;;2.45;0.38;;;;;16.50;99628.00;;;;5009242;28;20326;-80
2022/09/27 07:46:21;;;;;;;0.75;0.30;;;;;16.60;99632.00;;;;5010693;28;20207;-80
2022/09/27 07:48:52;;;;;;;0.95;0.20;;;;;16.50;99631.00;;;;5008776;28;20205;-80
2022/09/27 07:51:19;;;;;;;0.60;0.30;;;;;16.60;99637.00;;;;5009624;28;20244;-81
2022/09/27 07:53:47;;;;;;;0.65;0.30;;;;;16.60;99642.00;;;;5012759;28;20201;-85
2022/09/27 07:56:15;;;;;;;0.85;0.20;;;;;16.60;99638.00;;;;4997075;28;20212;-81
2022/09/27 07:58:42;;;;;;;1.58;0.55;;;;;16.60;99645.00;;;;4990495;28;20233;-81
2022/09/27 08:01:10;;;;;;;2.72;0.20;;;;;16.70;99655.00;;;;4991108;28;20208;-81
2022/09/27 08:03:37;;;;;;;0.98;0.25;;;;;16.70;99651.00;;;;4990322;28;20284;-81
2022/09/27 08:06:04;;;;;;;0.68;0.30;;;;;16.70;99654.00;;;;4990226;28;20225;-81
2022/09/27 08:08:32;;;;;;;1.20;0.28;;;;;16.70;99642.00;;;;4990433;28;20208;-81
2022/09/27 08:11:00;;;;;;;2.22;0.60;;;;;16.70;99647.00;;;;5003340;28;20197;-80
2022/09/27 08:13:28;;;;;;;0.47;0.10;;;;;16.70;99652.00;;;;4999025;28;20205;-81
2022/09/27 08:16:00;;;;;;;2.10;0.32;;;;;16.70;99651.00;;;;4997193;28;20197;-81
2022/09/27 08:18:27;;;;;;;1.52;0.25;;;;;16.70;99650.00;;;;5009509;28;20192;-81
2022/09/27 08:20:57;;;;;;;1.33;0.40;;;;;16.70;99646.00;;;;5008328;28;20212;-81
2022/09/27 08:23:24;;;;;;;2.80;0.20;;;;;16.70;99650.00;;;;5009407;28;20248;-81
2022/09/27 08:25:53;;;;;;;1.20;0.25;;;;;16.70;99646.00;;;;5008826;28;20228;-81
2022/09/27 08:28:22;;;;;;;1.75;0.10;;;;;16.70;99647.00;;;;5008802;28;20219;-81
2022/09/27 08:30:49;;;;;;;1.75;0.65;;;;;16.80;99643.00;;;;4994678;28;20212;-80
2022/09/27 08:33:17;;;;;;;0.70;0.30;;;;;16.80;99651.00;;;;4989887;28;20194;-82
2022/09/27 08:35:44;;;;;;;2.13;0.17;;;;;16.80;99648.00;;;;4988801;28;20206;-79
2022/09/27 08:38:12;;;;;;;1.35;0.30;;;;;16.80;99652.00;;;;5001209;28;20212;-81
2022/09/27 08:40:53;;;;;;;1.40;0.30;;;;;16.70;99658.00;;;;5002098;28;20200;-80
2022/09/27 08:43:32;;;;;;;4.65;0.25;;;;;16.70;99661.00;;;;5008066;28;20243;-81
2022/09/27 08:46:18;;;;;;;1.23;0.20;;;;;16.80;99665.00;;;;4994213;28;20224;-80
2022/09/27 08:48:51;;;;;;;3.83;0.28;;;;;16.80;99659.00;;;;4988483;28;20216;-81
2022/09/27 08:51:26;;;;;;;1.00;0.40;;;;;16.70;99669.00;;;;5003652;28;20197;-80
2022/09/27 08:53:57;;;;;;;1.02;0.30;;;;;16.70;99668.00;;;;5008338;28;21044;-81
2022/09/27 08:56:26;;;;;;;1.02;0.32;;;;;16.70;99675.00;;;;5008249;28;20216;-80
2022/09/27 08:59:02;;;;;;;0.93;0.43;;;;;16.60;99671.00;;;;5008567;28;20233;-80
2022/09/27 09:01:29;;;;;;;1.38;0.57;;;;;16.70;99680.00;;;;5008926;28;20211;-81
2022/09/27 09:03:59;;;;;;;1.65;0.80;;;;;16.60;99670.00;;;;5001630;28;20229;-81
2022/09/27 09:06:33;;;;;;;1.90;0.30;;;;;16.60;99670.00;;;;5003982;28;20228;-82
2022/09/27 09:09:10;;;;;;;1.50;0.50;;;;;16.60;99667.00;;;;5007032;28;20275;-82
2022/09/27 09:14:56;;;;;;;1.80;0.60;;;;;16.50;99670.00;;;;5008779;28;20204;-81
2022/09/27 09:17:38;;;;;;;0.55;0.15;;;;;16.50;99679.00;;;;5009139;28;20224;-83
2022/09/27 09:20:18;;;;;;;0.93;0.30;;;;;16.50;99670.00;;;;5007772;28;20283;-82
2022/09/27 09:23:09;;;;;;;0.88;0.10;;;;;16.50;99670.00;;;;4989465;28;20197;-82
2022/09/27 09:25:44;;;;;;;2.78;0.40;;;;;16.50;99677.00;;;;4993683;28;20203;-82
2022/09/27 09:28:24;;;;;;;1.45;0.20;;;;;16.40;99671.00;;;;5007787;28;20681;-82
2022/09/27 09:31:05;;;;;;;3.30;0.70;;;;;16.40;99677.00;;;;5017389;28;20666;-82
2022/09/27 09:33:35;;;;;;;1.33;0.32;;;;;16.50;99683.00;;;;5007230;28;20732;-83
2022/09/27 09:36:06;;;;;;;1.13;0.40;;;;;16.50;99681.00;;;;5006420;28;20201;-82
2022/09/27 09:38:39;;;;;;;4.35;0.40;;;;;16.50;99677.00;;;;5005111;28;20815;-82
2022/09/27 09:41:12;;;;;;;4.72;0.60;;;;;16.50;99680.00;;;;5005025;28;20197;-81
2022/09/27 09:43:45;;;;;;;1.77;0.13;;;;;16.50;99678.00;;;;5006285;28;20224;-82
2022/09/27 09:46:20;;;;;;;1.10;0.20;;;;;16.50;99677.00;;;;5005765;28;20199;-81
2022/09/27 09:48:54;;;;;;;1.00;0.17;;;;;16.50;99682.00;;;;5005702;28;20211;-82
2022/09/27 09:51:27;;;;;;;1.33;0.30;;;;;16.50;99682.00;;;;5004668;28;20193;-81
2022/09/27 09:53:58;;;;;;;0.88;0.22;;;;;16.50;99674.00;;;;5008290;28;20208;-81
2022/09/27 09:56:31;;;;;;;0.20;0.10;;;;;16.50;99682.00;;;;5002288;28;20200;-81
2022/09/27 09:59:02;;;;;;;0.20;0.00;;;;;16.60;99687.00;;;;5007263;28;20230;-81
2022/09/27 10:01:35;;;;;;;0.50;0.10;;;;;16.50;99690.00;;;;5008001;28;20247;-81
2022/09/27 10:04:03;;;;;;;0.73;0.15;;;;;16.60;99693.00;;;;5007223;28;20714;-80
2022/09/27 10:06:31;;;;;;;0.52;0.22;;;;;16.60;99693.00;;;;5006647;28;20225;-81
2022/09/27 10:09:00;;;;;;;0.40;0.28;;;;;16.60;99687.00;;;;5005592;28;20204;-81
2022/09/27 10:11:34;;;;;;;0.80;0.10;;;;;16.70;99688.00;;;;5005449;28;20208;-81
2022/09/27 10:14:02;;;;;;;0.52;0.20;;;;;16.70;99685.00;;;;5005557;28;20655;-81
2022/09/27 10:16:31;;;;;;;1.77;0.17;;;;;16.70;99692.00;;;;5006720;28;20201;-82
2022/09/27 10:19:02;;;;;;;0.13;0.10;;;;;16.70;99695.00;;;;5005999;28;20208;-81
2022/09/27 10:21:30;;;;;;;1.50;0.10;;;;;16.80;99690.00;;;;5008330;28;20189;-81
2022/09/27 10:24:11;;;;;;;0.40;0.10;;;;;16.70;99692.00;;;;5009535;28;20725;-80
2022/09/27 10:26:42;;;;;;;1.23;0.20;;;;;16.80;99692.00;;;;5008480;28;20200;-81
2022/09/27 10:29:29;;;;;;;0.40;0.20;;;;;16.80;99685.00;;;;5006718;28;20203;-81
2022/09/27 10:32:00;;;;;;;0.75;0.20;;;;;16.80;99680.00;;;;5010056;28;20551;-82
2022/09/27 10:34:33;;;;;;;0.65;0.20;;;;;16.80;99690.00;;;;5009647;28;20205;-83
2022/09/27 10:37:17;;;;;;;0.40;0.10;;;;;16.80;99686.00;;;;4994013;28;20201;-82
2022/09/27 10:39:46;;;;;;;0.30;0.05;;;;;16.80;99685.00;;;;5009388;28;20208;-82
2022/09/27 10:42:30;;;;;;;0.38;0.00;;;;;16.80;99685.00;;;;5011238;28;20209;-81
2022/09/27 10:44:58;;;;;;;0.98;0.10;;;;;16.90;99690.00;;;;5010883;28;20637;-81
2022/09/27 10:47:28;;;;;;;2.60;0.30;;;;;16.90;99696.00;;;;4992425;28;20206;-81
2022/09/27 10:50:06;;;;;;;0.20;0.10;;;;;16.90;99693.00;;;;5010353;28;20197;-81
2022/09/27 10:52:33;;;;;;;0.15;0.03;;;;;17.00;99691.00;;;;5009055;28;20673;-80
2022/09/27 10:55:05;;;;;;;1.95;0.20;;;;;17.00;99692.00;;;;5009678;28;20213;-81
2022/09/27 10:57:33;;;;;;;0.45;0.10;;;;;17.10;99692.00;;;;5008415;28;20193;-82
2022/09/27 11:00:05;;;;;;;0.55;0.10;;;;;17.10;99700.00;;;;5010171;28;20228;-82
2022/09/27 11:02:35;;;;;;;0.90;0.43;;;;;17.10;99700.00;;;;5010049;28;20746;-80
2022/09/27 11:05:09;;;;;;;0.50;0.08;;;;;17.10;99697.00;;;;5009661;28;20231;-82
2022/09/27 11:07:38;;;;;;;0.25;0.10;;;;;17.10;99698.00;;;;5010199;28;20227;-81
2022/09/27 11:10:27;;;;;;;0.20;0.10;;;;;17.00;99704.00;;;;5010278;28;20204;-81
2022/09/27 11:13:20;;;;;;;0.88;0.22;;;;;17.00;99695.00;;;;5007748;28;20204;-81
2022/09/27 11:16:03;;;;;;;0.50;0.10;;;;;17.00;99699.00;;;;4991135;28;20671;-81
2022/09/27 11:18:41;;;;;;;0.40;0.20;;;;;17.00;99698.00;;;;5008480;28;20189;-80
2022/09/27 11:21:19;;;;;;;0.10;0.00;;;;;17.00;99692.00;;;;5008223;28;20594;-80
2022/09/27 11:23:59;;;;;;;1.38;0.20;;;;;17.00;99696.00;;;;5009197;28;20189;-80
2022/09/27 11:26:44;;;;;;;0.55;0.20;;;;;17.00;99689.00;;;;5007608;28;20189;-82
2022/09/27 11:29:23;;;;;;;1.38;0.10;;;;;17.00;99692.00;;;;5009257;28;20200;-81
2022/09/27 11:32:05;;;;;;;0.30;0.20;;;;;17.00;99689.00;;;;5007968;28;20203;-82
2022/09/27 11:34:46;;;;;;;0.40;0.10;;;;;16.90;99690.00;;;;5006171;28;20197;-80
2022/09/27 11:37:22;;;;;;;0.10;0.03;;;;;16.90;99681.00;;;;5006792;28;20216;-80
2022/09/27 11:40:04;;;;;;;0.73;0.10;;;;;16.90;99695.00;;;;5009788;28;20674;-81
2022/09/27 11:43:00;;;;;;;1.02;0.30;;;;;16.80;99682.00;;;;5005381;28;20211;-80
2022/09/27 11:45:40;;;;;;;0.13;0.10;;;;;16.80;99688.00;;;;5008841;28;20699;-81
2022/09/27 11:48:23;;;;;;;0.75;0.20;;;;;16.80;99688.00;;;;5009750;28;20201;-81
2022/09/27 11:51:02;;;;;;;0.30;0.10;;;;;16.80;99679.00;;;;5005629;28;20671;-81
2022/09/27 11:53:43;;;;;;;0.25;0.10;;;;;16.80;99680.00;;;;5006544;28;20208;-83
2022/09/27 11:56:21;;;;;;;0.55;0.20;;;;;16.80;99677.00;;;;5010493;28;20212;-81
2022/09/27 11:59:02;;;;;;;0.10;0.10;;;;;16.70;99673.00;;;;5009242;28;20287;-81
2022/09/27 12:01:37;;;;;;;0.43;0.10;;;;;16.70;99676.00;;;;5007228;28;20201;-81
2022/09/27 12:04:25;;;;;;;1.08;0.32;;;;;16.60;99674.00;;;;5009699;28;20212;-83
2022/09/27 12:06:59;;;;;;;0.38;0.20;;;;;16.70;99677.00;;;;5009057;28;20231;-80
2022/09/27 12:09:31;;;;;;;0.47;0.15;;;;;16.70;99677.00;;;;5010624;28;20284;-82
2022/09/27 12:12:04;;;;;;;0.28;0.15;;;;;16.70;99684.00;;;;5013178;28;20208;-82
2022/09/27 12:14:37;;;;;;;0.32;0.10;;;;;16.60;99684.00;;;;5013749;28;20197;-82
2022/09/27 12:17:08;;;;;;;1.20;0.10;;;;;16.60;99667.00;;;;5000172;28;20197;-81
2022/09/27 12:19:40;;;;;;;0.88;0.10;;;;;16.60;99670.00;;;;5009703;28;20197;-83
2022/09/27 12:22:15;;;;;;;1.25;0.20;;;;;16.50;99677.00;;;;5009087;28;20284;-81
2022/09/27 12:24:44;;;;;;;1.10;0.20;;;;;16.50;99677.00;;;;5009107;28;20231;-82
2022/09/27 12:27:16;;;;;;;0.50;0.20;;;;;16.50;99692.00;;;;5007921;28;20201;-82
2022/09/27 12:29:46;;;;;;;0.85;0.05;;;;;16.50;99687.00;;;;4989485;28;20711;-82
2022/09/27 12:32:18;;;;;;;1.63;0.28;;;;;16.50;99690.00;;;;5001895;28;20204;-82
2022/09/27 12:34:51;;;;;;;0.65;0.15;;;;;16.40;99687.00;;;;5008922;28;20208;-82
2022/09/27 12:37:26;;;;;;;1.48;0.20;;;;;16.40;99690.00;;;;5009088;28;20706;-82
2022/09/27 12:39:58;;;;;;;0.50;0.30;;;;;16.40;99683.00;;;;5009400;28;20208;-82
2022/09/27 12:42:31;;;;;;;0.73;0.28;;;;;16.40;99687.00;;;;5009577;28;20220;-82
2022/09/27 12:44:58;;;;;;;1.17;0.28;;;;;16.40;99683.00;;;;5001704;28;20233;-82
2022/09/27 12:47:40;;;;;;;1.38;0.10;;;;;16.30;99682.00;;;;5007565;28;20201;-83